Brunswick, ME

22:13 EDT le 02 septembre 2014 (GMT -0400)
Brunswick Police Department | Change Station
CLOSE
Current Station
Stations météorologiques personnelles
Location: Brunswick, ME
Altitude: 89 ft
Stations météo à proximité

Alt. 89 ft 43.91 °N, 69.98 °W | Updated 12 minutes ago

Partiellement nuageux
Partiellement nuageux
69.4 ° F
Paraît 69.4 ° F
N
0.0
Vent Variable Vent de ONO
Gusts 1.0 mph

Aujourd'hui
Haut(e) -- | Bas -- ° F
--% Risque de précip.
Hier
Haut(e) -- | Bas -- ° F
Precip. -- pouce
6:04 AM 7:13 PM
Premier quartier, 57% visible
Pression 29.75 pouce
Visibilité 3.0 Miles terrestres
Nuages Couvert 200 ft
Point de rosée 68 ° F
Humidité 94%
Précipitations 0.00 pouce
Profondeur de la couche neigeuse Non disponible.
UV 0 sur 12
Pollen 6.80 sur 12
Ozone Bon
PM2.5 Moyen
Flu Activity Non disponible.
SPECI KIWI 030201Z AUTO 20003KT 3SM BR OVC002 21/19 A2975 RMK AO2 T02060194

More Conditions Fewer Conditions

Pression 29.75 pouce
Visibilité 3.0 Miles terrestres
Nuages Couvert 200 ft
Point de rosée 68 ° F
Humidité 94%
Précipitations 0.00 pouce
Profondeur de la couche neigeuse Non disponible.
UV 0 sur 12
Pollen 6.80 sur 12
Ozone Bon
PM2.5 Moyen
Flu Activity Non disponible.
SPECI KIWI 030201Z AUTO 20003KT 3SM BR OVC002 21/19 A2975 RMK AO2 T02060194

More Conditions Fewer Conditions

10-Day Weather Forecast

Almanac

Astronomie

Sep. 02, 2014 Lever Coucher
Temps réel 06:04 EDT 19:13 EDT
Crépuscule civil 05:34 EDT 19:43 EDT
Crépuscule nautique 04:59 EDT 20:18 EDT
Crépuscule astronomique 04:21 EDT 20:56 EDT
Lune 13:59 EDT (9/2) 23:50 EDT (9/2)
Durée de lumière visible 14h 08m
Longueur du jour
13h 09m
Tomorrow will be 2m 55s shorter.
Premier quartier, 57% of the Moon is Illuminated
Aujourd'hui
Premier quartier
Sep 8
Pleine lune
Sep 15
Dernier quartier
Sep 24
Nouveau
Oct 1
Premier quartier

Extrêmes aujourd'hui

State Highs State Lows

Community

WunderPhotos

Upload Photos

1,749,841 Photos téléchargées !

Nearby

Qualité de l'air

  Qualité de l'air Indice de la qualité de l'air Polluant
Hier Bon
PM2.5
Hier Bon
OZONE
Actuel Moyen
PM2.5
Actuel Bon
OZONE
mardi Bon
OZONE
mardi Bon
PM2.5
mercredi Bon
OZONE
mercredi Bon
PM2.5
jeudi Bon
OZONE
jeudi Bon
PM2.5
vendredi Bon
OZONE
vendredi Bon
PM2.5
samedi Bon
OZONE
samedi Bon
PM2.5

Épaisseur de neige

Station Depth Altitude
Pas de nouvelles chutes de neige

Activité sismique

Ville Distance Mag. Time & Date
No recent earthquake activity has been reported nearby.
Minimum magnitude displayed is 2.5.

Températures des eaux côtières

Lieu Température
Portland, ME 59.0 ° F
Wells, ME 63.0 ° F

Stations météo à proximité